createdAt,value
2023-04-01T00:02:02.822Z,9.85
2023-04-01T00:07:06.073Z,9.83
2023-04-01T00:12:09.192Z,9.75
2023-04-01T00:17:13.580Z,9.75
2023-04-01T00:22:17.809Z,9.69
2023-04-01T00:27:21.542Z,9.69
2023-04-01T00:32:26.331Z,9.65
2023-04-01T00:37:30.674Z,9.64
2023-04-01T00:42:33.844Z,9.64
2023-04-01T00:47:38.558Z,9.61
2023-04-01T00:52:41.909Z,9.60
2023-04-01T00:57:46.696Z,9.58
2023-04-01T01:02:59.069Z,9.56
2023-04-01T01:08:12.678Z,9.56
2023-04-01T01:13:21.746Z,9.59
2023-04-01T01:18:32.717Z,9.56
2023-04-01T01:24:10.378Z,9.49
2023-04-01T01:29:27.868Z,9.50
2023-04-01T01:34:38.851Z,9.49
2023-04-01T01:39:46.294Z,9.45
2023-04-01T01:44:53.072Z,9.41
2023-04-01T01:49:57.708Z,9.39
2023-04-01T01:55:02.501Z,9.39
2023-04-01T02:00:18.473Z,9.34
2023-04-01T02:05:25.264Z,9.34
2023-04-01T02:10:37.170Z,9.34
2023-04-01T02:15:47.061Z,9.34
2023-04-01T02:20:52.490Z,9.31
2023-04-01T02:25:57.496Z,9.25
2023-04-01T02:31:03.607Z,9.25
2023-04-01T02:36:07.292Z,9.25
2023-04-01T02:41:12.724Z,9.21
2023-04-01T02:46:15.783Z,9.19
2023-04-01T02:51:18.878Z,9.22
2023-04-01T02:56:23.732Z,9.16
2023-04-01T03:01:26.866Z,9.18
2023-04-01T03:06:29.946Z,9.06
2023-04-01T03:11:34.359Z,9.09
2023-04-01T03:16:37.536Z,9.14
2023-04-01T03:21:40.686Z,9.09
2023-04-01T03:26:45.569Z,9.13
2023-04-01T03:31:50.940Z,9.17
2023-04-01T03:36:55.594Z,9.03
2023-04-01T03:42:02.579Z,9.01
2023-04-01T03:47:06.059Z,9.14
2023-04-01T03:52:11.877Z,9.14
2023-04-01T03:57:16.721Z,9.04
2023-04-01T04:02:20.203Z,9.05
2023-04-01T04:07:23.728Z,9.16
2023-04-01T04:12:39.384Z,9.11
2023-04-01T04:17:42.608Z,9.18
2023-04-01T04:22:46.044Z,9.14
2023-04-01T04:27:51.718Z,9.20
2023-04-01T04:32:55.005Z,9.17
2023-04-01T04:38:00.747Z,9.16
2023-04-01T04:43:05.677Z,9.14
2023-04-01T04:48:10.273Z,9.16
2023-04-01T04:53:14.106Z,9.18
2023-04-01T04:58:19.664Z,9.21
2023-04-01T05:03:25.780Z,9.19
2023-04-01T05:08:29.371Z,9.18
2023-04-01T05:13:34.097Z,9.21
2023-04-01T05:18:37.347Z,9.27
2023-04-01T05:23:41.244Z,9.28
2023-04-01T05:28:45.871Z,9.23
2023-04-01T05:33:49.109Z,9.22
2023-04-01T05:38:52.373Z,9.27
2023-04-01T05:43:57.896Z,9.27
2023-04-01T05:49:21.356Z,9.24
2023-04-01T05:54:26.250Z,9.28
2023-04-01T05:59:32.238Z,9.22
2023-04-01T06:04:40.919Z,9.21
2023-04-01T06:09:45.397Z,9.28
2023-04-01T06:15:00.309Z,9.24
2023-04-01T06:20:07.882Z,9.25
2023-04-01T06:25:45.559Z,9.18
2023-04-01T06:31:00.051Z,9.26
2023-04-01T06:36:32.463Z,9.31
2023-04-01T06:42:04.647Z,9.36
2023-04-01T06:47:25.579Z,9.42
2023-04-01T06:52:57.715Z,9.42
2023-04-01T06:58:25.275Z,9.47
2023-04-01T07:03:34.697Z,9.55
2023-04-01T07:08:44.608Z,9.59
2023-04-01T07:13:51.452Z,9.62
2023-04-01T07:19:03.297Z,9.71
2023-04-01T07:24:26.175Z,9.67
2023-04-01T07:29:41.716Z,9.63
2023-04-01T07:35:06.684Z,9.56
2023-04-01T07:40:23.602Z,9.50
2023-04-01T07:45:36.776Z,9.70
2023-04-01T07:50:53.949Z,9.69
2023-04-01T07:56:05.374Z,9.63
2023-04-01T08:01:19.904Z,9.77
2023-04-01T08:06:31.347Z,9.85
2023-04-01T08:12:00.895Z,9.92
2023-04-01T08:17:31.206Z,10.03
2023-04-01T08:22:42.811Z,10.18
2023-04-01T08:28:02.033Z,10.10
2023-04-01T08:33:15.109Z,10.20
2023-04-01T08:38:29.485Z,10.26
2023-04-01T08:43:53.572Z,10.31
2023-04-01T08:49:08.166Z,10.54
2023-04-01T08:54:38.136Z,10.60
2023-04-01T08:59:56.995Z,10.37
2023-04-01T09:05:38.937Z,10.49
2023-04-01T09:11:06.963Z,10.44
2023-04-01T09:16:47.731Z,10.37
2023-04-01T09:22:24.322Z,10.39
2023-04-01T09:27:32.504Z,10.55
2023-04-01T09:33:14.862Z,10.20
2023-04-01T09:38:29.152Z,10.10
2023-04-01T09:43:48.010Z,9.98
2023-04-01T09:49:17.884Z,9.88
2023-04-01T09:54:34.078Z,10.03
2023-04-01T10:00:22.731Z,9.97
2023-04-01T10:06:21.937Z,9.95
2023-04-01T10:11:51.373Z,10.03
2023-04-01T10:17:40.676Z,9.94
2023-04-01T10:23:24.808Z,10.07
2023-04-01T10:29:05.683Z,10.23
2023-04-01T10:34:58.389Z,10.26
2023-04-01T10:40:23.701Z,10.33
2023-04-01T10:46:24.092Z,10.26
2023-04-01T10:52:13.843Z,10.54
2023-04-01T10:58:11.740Z,10.74
2023-04-01T11:04:29.252Z,10.41
2023-04-01T11:10:52.775Z,10.22
2023-04-01T11:16:38.325Z,10.55
2023-04-01T11:22:14.177Z,10.61
2023-04-01T11:27:46.526Z,10.69
2023-04-01T11:32:56.852Z,10.93
2023-04-01T11:38:09.736Z,11.43
2023-04-01T11:43:33.906Z,11.53
2023-04-01T11:49:10.149Z,11.52
2023-04-01T11:54:33.710Z,11.19
2023-04-01T12:00:04.431Z,11.03
2023-04-01T12:05:31.273Z,10.76
2023-04-01T12:10:42.822Z,10.68
2023-04-01T12:16:02.036Z,10.87
2023-04-01T12:21:19.811Z,10.78
2023-04-01T12:26:43.143Z,10.74
2023-04-01T12:31:58.972Z,10.67
2023-04-01T12:37:15.085Z,10.67
2023-04-01T12:42:36.554Z,10.65
2023-04-01T12:48:05.276Z,10.82
2023-04-01T12:53:34.997Z,11.29
2023-04-01T12:59:11.820Z,11.28
2023-04-01T13:04:46.114Z,11.21
2023-04-01T13:09:59.115Z,11.58
2023-04-01T13:15:17.488Z,11.41
2023-04-01T13:20:35.205Z,11.41
2023-04-01T13:25:43.013Z,11.35
2023-04-01T13:30:58.553Z,11.17
2023-04-01T13:36:18.464Z,10.86
2023-04-01T13:41:33.079Z,10.80
2023-04-01T13:46:57.131Z,10.71
2023-04-01T13:52:26.359Z,10.71
2023-04-01T13:57:56.023Z,10.53
2023-04-01T14:03:21.891Z,10.64
2023-04-01T14:08:44.767Z,10.74
2023-04-01T14:14:01.854Z,10.76
2023-04-01T14:19:26.512Z,10.55
2023-04-01T14:25:08.152Z,10.56
2023-04-01T14:30:31.553Z,10.49
2023-04-01T14:35:39.951Z,10.68
2023-04-01T14:40:56.402Z,10.73
2023-04-01T14:46:15.006Z,10.81
2023-04-01T14:51:23.201Z,10.67
2023-04-01T14:56:52.235Z,10.80
2023-04-01T15:02:02.356Z,10.74
2023-04-01T15:07:23.967Z,10.85
2023-04-01T15:12:34.609Z,10.69
2023-04-01T15:17:50.797Z,10.64
2023-04-01T15:23:14.344Z,10.44
2023-04-01T15:28:31.993Z,10.41
2023-04-01T15:33:49.090Z,10.47
2023-04-01T15:38:55.335Z,10.36
2023-04-01T15:43:58.374Z,10.45
2023-04-01T15:49:17.446Z,10.38
2023-04-01T15:54:30.406Z,10.39
2023-04-01T15:59:54.176Z,10.34
2023-04-01T16:05:02.779Z,10.29
2023-04-01T16:10:19.721Z,10.24
2023-04-01T16:15:30.851Z,10.15
2023-04-01T16:20:52.484Z,10.11
2023-04-01T16:26:05.779Z,10.07
2023-04-01T16:31:16.028Z,10.11
2023-04-01T16:36:29.327Z,10.08
2023-04-01T16:41:36.933Z,10.08
2023-04-01T16:46:43.464Z,10.05
2023-04-01T16:51:56.057Z,10.00
2023-04-01T16:57:18.445Z,9.96
2023-04-01T17:02:27.772Z,9.95
2023-04-01T17:07:43.043Z,9.86
2023-04-01T17:13:05.991Z,9.85
2023-04-01T17:18:18.934Z,9.82
2023-04-01T17:23:33.191Z,9.76
2023-04-01T17:28:51.602Z,9.67
2023-04-01T17:34:11.837Z,9.66
2023-04-01T17:39:38.074Z,9.48
2023-04-01T17:44:52.046Z,9.41
2023-04-01T17:50:05.083Z,9.41
2023-04-01T17:55:36.720Z,9.37
2023-04-01T18:00:54.527Z,9.37
2023-04-01T18:06:11.671Z,9.37
2023-04-01T18:11:28.130Z,9.32
2023-04-01T18:16:44.774Z,9.20
2023-04-01T18:21:53.204Z,9.02
2023-04-01T18:27:06.262Z,8.96
2023-04-01T18:32:26.469Z,8.90
2023-04-01T18:37:34.990Z,8.90
2023-04-01T18:42:51.739Z,8.83
2023-04-01T18:48:10.800Z,8.77
2023-04-01T18:53:24.623Z,8.81
2023-04-01T18:58:35.987Z,8.79
2023-04-01T19:03:45.527Z,8.76
2023-04-01T19:08:49.849Z,8.73
2023-04-01T19:14:04.357Z,8.65
2023-04-01T19:19:23.948Z,8.62
2023-04-01T19:24:56.237Z,8.64
2023-04-01T19:30:16.111Z,8.62
2023-04-01T19:35:29.922Z,8.54
2023-04-01T19:40:55.903Z,8.53
2023-04-01T19:46:08.812Z,8.56
2023-04-01T19:51:18.347Z,8.52
2023-04-01T19:56:23.684Z,8.52
2023-04-01T20:01:44.585Z,8.48
2023-04-01T20:06:58.280Z,8.46
2023-04-01T20:12:08.186Z,8.42
2023-04-01T20:17:21.701Z,8.43
2023-04-01T20:22:56.348Z,8.40
2023-04-01T20:28:06.526Z,8.41
2023-04-01T20:33:34.787Z,8.38
2023-04-01T20:39:06.332Z,8.37
2023-04-01T20:44:13.293Z,8.30
2023-04-01T20:49:55.489Z,8.27
2023-04-01T20:55:29.519Z,8.07
2023-04-01T21:00:40.990Z,8.10
2023-04-01T21:06:11.166Z,8.10
2023-04-01T21:11:23.308Z,8.03
2023-04-01T21:16:37.600Z,7.93
2023-04-01T21:22:00.155Z,7.77
2023-04-01T21:27:12.429Z,7.69
2023-04-01T21:32:37.499Z,7.68
2023-04-01T21:38:06.325Z,7.67
2023-04-01T21:43:21.866Z,7.58
2023-04-01T21:48:52.738Z,7.62
2023-04-01T21:54:28.378Z,7.60
2023-04-01T22:00:21.783Z,7.54
2023-04-01T22:05:30.914Z,7.46
2023-04-01T22:10:40.352Z,7.35
2023-04-01T22:15:58.545Z,7.31
2023-04-01T22:21:11.876Z,7.22
2023-04-01T22:26:22.190Z,7.17
2023-04-01T22:31:31.055Z,7.12
2023-04-01T22:36:44.107Z,7.00
2023-04-01T22:42:03.059Z,7.03
2023-04-01T22:47:19.926Z,7.08
2023-04-01T22:52:33.605Z,7.12
2023-04-01T22:57:44.236Z,7.13
2023-04-01T23:02:51.826Z,7.05
2023-04-01T23:08:02.139Z,7.01
2023-04-01T23:13:07.149Z,6.97
2023-04-01T23:18:24.071Z,6.83
2023-04-01T23:23:38.534Z,6.79
2023-04-01T23:28:51.314Z,6.78
2023-04-01T23:33:56.830Z,6.77
2023-04-01T23:39:08.495Z,6.71
2023-04-01T23:44:14.491Z,6.69
2023-04-01T23:49:21.278Z,6.68
2023-04-01T23:54:32.897Z,6.68
2023-04-01T23:59:38.876Z,6.59
